Time;durP1;ratioP1;P1;durP2;ratioP2;P2;SDS_P1;SDS_P2;PMS_P1;PMS_P2;Temp;Humidity;BMP_temperature;BMP_pressure;BME280_temperature;BME280_humidity;BME280_pressure;Samples;Min_cycle;Max_cycle;Signal;HPM_P1;HPM_P2
2023/01/04 05:05:32;;;;;;;3.58;2.88;;;4.50;99.90;;;;;;5189405;23;20285;-71
2023/01/04 05:07:57;;;;;;;4.93;3.00;;;4.60;99.90;;;;;;4997251;28;20181;-72
2023/01/04 05:10:23;;;;;;;2.70;2.50;;;4.70;99.90;;;;;;4996662;28;20679;-72
2023/01/04 05:13:11;;;;;;;3.03;2.70;;;4.70;99.90;;;;;;4997136;28;20167;-72
2023/01/04 05:15:37;;;;;;;3.15;2.85;;;4.70;99.90;;;;;;4996352;28;20239;-71
2023/01/04 05:18:04;;;;;;;2.80;2.60;;;4.70;99.90;;;;;;4997175;28;20214;-71
2023/01/04 05:20:30;;;;;;;2.67;2.47;;;4.80;99.90;;;;;;4995461;28;20180;-72
2023/01/04 05:22:55;;;;;;;3.77;2.63;;;4.80;99.90;;;;;;4996778;28;20271;-72
2023/01/04 05:25:21;;;;;;;3.03;2.53;;;4.90;99.90;;;;;;4996028;28;20290;-71
2023/01/04 05:27:47;;;;;;;2.73;2.53;;;5.00;99.90;;;;;;4995879;28;20186;-72
2023/01/04 05:32:58;;;;;;;5.28;2.88;;;5.00;99.90;;;;;;4996759;28;20259;-73
2023/01/04 05:35:24;;;;;;;2.13;1.95;;;5.00;99.90;;;;;;4996189;28;20198;-72
2023/01/04 05:37:50;;;;;;;1.83;1.73;;;5.10;99.90;;;;;;4984127;28;20261;-72
2023/01/04 05:40:16;;;;;;;3.70;2.23;;;5.20;99.90;;;;;;4977572;28;20278;-72
2023/01/04 05:42:42;;;;;;;1.67;1.57;;;5.30;99.90;;;;;;4977138;28;20704;-72
2023/01/04 05:45:08;;;;;;;1.73;1.60;;;5.40;99.90;;;;;;4977295;28;20185;-72
2023/01/04 05:47:34;;;;;;;1.37;1.10;;;5.70;99.90;;;;;;4986259;28;20319;-72
2023/01/04 05:50:00;;;;;;;1.65;1.40;;;5.90;99.90;;;;;;4996234;28;20454;-72
2023/01/04 05:52:26;;;;;;;1.60;1.50;;;6.10;99.90;;;;;;4996794;28;20171;-72
2023/01/04 05:54:52;;;;;;;1.40;1.30;;;6.20;99.90;;;;;;4996606;28;20437;-72
2023/01/04 05:57:17;;;;;;;2.20;2.10;;;6.40;99.90;;;;;;4990646;28;20413;-72
2023/01/04 05:59:43;;;;;;;2.63;2.00;;;6.40;99.90;;;;;;4980218;28;20547;-72
2023/01/04 06:02:19;;;;;;;3.10;2.00;;;6.50;99.90;;;;;;5009551;28;20234;-73
2023/01/04 06:04:45;;;;;;;2.55;1.85;;;6.50;99.90;;;;;;4979719;28;20427;-72
2023/01/04 06:07:11;;;;;;;1.70;1.60;;;6.60;99.90;;;;;;5007057;28;20198;-72
2023/01/04 06:09:36;;;;;;;1.73;1.63;;;6.60;99.90;;;;;;4991697;28;20257;-73
2023/01/04 06:12:02;;;;;;;1.47;1.37;;;6.70;99.90;;;;;;5005071;28;20197;-72
2023/01/04 06:14:28;;;;;;;1.17;1.17;;;6.80;99.90;;;;;;4991521;28;20190;-72
2023/01/04 06:16:53;;;;;;;1.83;1.73;;;6.90;99.90;;;;;;4993824;28;20181;-71
2023/01/04 06:19:19;;;;;;;1.87;1.73;;;7.00;99.90;;;;;;4986393;28;20215;-75
2023/01/04 06:21:44;;;;;;;2.80;1.40;;;7.00;99.90;;;;;;4986075;28;20203;-73
2023/01/04 06:24:10;;;;;;;2.93;2.00;;;7.00;99.90;;;;;;4980768;28;20202;-71
2023/01/04 06:26:36;;;;;;;3.25;2.92;;;7.00;99.90;;;;;;4991149;28;20185;-73
2023/01/04 06:29:02;;;;;;;1.87;1.70;;;7.00;99.90;;;;;;4995388;28;20178;-73
2023/01/04 06:31:28;;;;;;;1.20;1.17;;;7.00;99.90;;;;;;5000480;28;20206;-72
2023/01/04 06:33:54;;;;;;;3.03;2.27;;;7.00;99.90;;;;;;5003774;28;20190;-72
2023/01/04 06:36:20;;;;;;;2.63;2.42;;;7.10;99.90;;;;;;5004639;28;20437;-73
2023/01/04 06:38:46;;;;;;;2.43;2.30;;;7.00;99.90;;;;;;5000753;28;20700;-73
2023/01/04 06:41:12;;;;;;;2.40;2.17;;;6.90;99.90;;;;;;4997742;28;20966;-72
2023/01/04 06:43:37;;;;;;;3.03;2.30;;;6.70;99.90;;;;;;4994280;28;20182;-72
2023/01/04 06:46:03;;;;;;;6.90;2.10;;;6.50;99.90;;;;;;4986644;28;20178;-72
2023/01/04 06:48:29;;;;;;;2.17;1.97;;;6.30;99.90;;;;;;4976327;28;20196;-73
2023/01/04 06:50:54;;;;;;;2.37;2.17;;;6.20;99.90;;;;;;4976069;28;20575;-73
2023/01/04 06:53:20;;;;;;;1.87;1.40;;;6.30;99.90;;;;;;5004083;28;20214;-73
2023/01/04 06:55:45;;;;;;;2.10;1.90;;;6.30;99.90;;;;;;4977235;28;20202;-69
2023/01/04 06:58:11;;;;;;;2.83;2.63;;;6.30;99.90;;;;;;4976616;28;20180;-67
2023/01/04 07:00:37;;;;;;;3.15;2.30;;;6.30;99.90;;;;;;4976086;28;20527;-68
2023/01/04 07:03:03;;;;;;;2.10;1.90;;;6.30;99.90;;;;;;4976010;28;20175;-68
2023/01/04 07:05:28;;;;;;;1.80;1.70;;;6.40;99.90;;;;;;4975457;28;20209;-68
2023/01/04 07:07:54;;;;;;;1.73;1.30;;;6.40;99.90;;;;;;4975726;28;20197;-68
2023/01/04 07:10:19;;;;;;;1.70;1.23;;;6.50;99.90;;;;;;4975689;28;20218;-69
2023/01/04 07:12:45;;;;;;;1.73;1.47;;;6.50;99.90;;;;;;4976603;28;20236;-68
2023/01/04 07:15:11;;;;;;;1.17;1.10;;;6.70;99.90;;;;;;4988102;28;20199;-69
2023/01/04 07:17:37;;;;;;;2.67;1.30;;;6.70;99.90;;;;;;4974570;28;20250;-70
2023/01/04 07:20:03;;;;;;;1.55;1.42;;;6.90;99.90;;;;;;4975738;28;20407;-69
2023/01/04 07:22:29;;;;;;;1.83;1.73;;;7.00;99.90;;;;;;4974391;28;20236;-68
2023/01/04 07:24:54;;;;;;;1.37;1.27;;;7.10;99.90;;;;;;4974750;28;20189;-69
2023/01/04 07:27:20;;;;;;;1.20;1.10;;;7.20;99.90;;;;;;4981539;28;20425;-67
2023/01/04 07:29:46;;;;;;;1.53;1.43;;;7.20;99.90;;;;;;4979947;28;20626;-67
2023/01/04 07:32:12;;;;;;;2.23;1.30;;;7.20;99.90;;;;;;4981161;28;20185;-65
2023/01/04 07:34:38;;;;;;;1.63;1.17;;;7.20;99.90;;;;;;4977999;28;20260;-66
2023/01/04 07:37:08;;;;;;;1.60;1.50;;;7.20;99.90;;;;;;4977378;28;20202;-67
2023/01/04 07:39:33;;;;;;;0.77;0.75;;;7.10;99.90;;;;;;4977682;28;20190;-66
2023/01/04 07:41:59;;;;;;;1.30;1.20;;;7.10;99.90;;;;;;4983806;28;20179;-67
2023/01/04 07:44:26;;;;;;;1.40;1.30;;;7.10;99.90;;;;;;4973959;28;20664;-67
2023/01/04 07:46:52;;;;;;;1.60;1.50;;;7.10;99.90;;;;;;4979676;28;20182;-67
2023/01/04 07:49:18;;;;;;;1.33;1.33;;;7.00;99.90;;;;;;4977481;28;20189;-66
2023/01/04 07:51:48;;;;;;;0.97;0.80;;;7.00;99.90;;;;;;4979534;28;20419;-67
2023/01/04 07:54:15;;;;;;;0.98;0.98;;;7.00;99.90;;;;;;4998178;28;21029;-67
2023/01/04 07:56:41;;;;;;;1.77;1.50;;;7.00;99.90;;;;;;4981623;28;20631;-67
2023/01/04 07:59:08;;;;;;;1.27;1.17;;;7.00;99.90;;;;;;4983459;28;20190;-67
2023/01/04 08:01:36;;;;;;;1.77;1.27;;;6.90;99.90;;;;;;4980325;28;20171;-67
2023/01/04 08:04:02;;;;;;;1.20;0.95;;;6.80;99.90;;;;;;4986380;28;20205;-66
2023/01/04 08:06:28;;;;;;;3.13;1.07;;;6.80;99.90;;;;;;4978315;28;20329;-66
2023/01/04 08:08:53;;;;;;;0.73;0.73;;;6.70;99.90;;;;;;4974518;28;20431;-66
2023/01/04 08:11:21;;;;;;;1.63;1.40;;;6.60;99.90;;;;;;4973415;28;20284;-66
2023/01/04 08:13:47;;;;;;;1.10;1.10;;;6.70;99.90;;;;;;4999381;28;20193;-65
2023/01/04 08:16:18;;;;;;;2.47;1.77;;;6.70;99.90;;;;;;4982928;28;20182;-66
2023/01/04 08:18:43;;;;;;;1.63;1.52;;;6.60;99.90;;;;;;4983524;28;20419;-65
2023/01/04 08:21:09;;;;;;;1.43;1.33;;;6.60;99.90;;;;;;4982792;28;20558;-65
2023/01/04 08:23:36;;;;;;;1.50;1.40;;;6.60;99.90;;;;;;4974743;28;20172;-65
2023/01/04 08:26:11;;;;;;;2.28;2.00;;;6.60;99.90;;;;;;4979840;28;20176;-65
2023/01/04 08:28:37;;;;;;;1.60;1.45;;;6.50;99.90;;;;;;4982373;28;20187;-66
2023/01/04 08:31:24;;;;;;;0.90;0.90;;;6.50;99.90;;;;;;4979261;28;20204;-65
2023/01/04 08:33:51;;;;;;;1.70;0.95;;;6.40;99.90;;;;;;4982992;28;20208;-66
2023/01/04 08:36:23;;;;;;;5.25;4.45;;;6.40;99.90;;;;;;4983804;28;20168;-69
2023/01/04 08:38:50;;;;;;;1.50;1.40;;;6.40;99.90;;;;;;4983117;28;20179;-65
2023/01/04 08:41:17;;;;;;;1.00;1.00;;;6.50;99.90;;;;;;4974470;28;20253;-71
2023/01/04 08:43:43;;;;;;;1.67;1.17;;;6.50;99.90;;;;;;4971830;28;20659;-68
2023/01/04 08:46:10;;;;;;;1.53;1.43;;;6.60;99.90;;;;;;4982422;28;20298;-67
2023/01/04 08:48:36;;;;;;;1.85;1.30;;;6.60;99.90;;;;;;4979467;28;20433;-67
2023/01/04 08:51:04;;;;;;;1.13;1.13;;;6.70;99.90;;;;;;4980983;28;20203;-68
2023/01/04 08:53:30;;;;;;;0.90;0.90;;;6.70;99.90;;;;;;4981954;28;20781;-67
2023/01/04 08:55:58;;;;;;;0.77;0.77;;;6.80;99.90;;;;;;4977842;28;20291;-67
2023/01/04 08:58:24;;;;;;;2.65;1.70;;;6.80;99.90;;;;;;4979976;28;20189;-68
2023/01/04 09:00:49;;;;;;;0.70;0.70;;;6.90;99.90;;;;;;4977629;28;20231;-68
2023/01/04 09:03:15;;;;;;;1.30;1.20;;;6.90;99.90;;;;;;4995472;28;20434;-66
2023/01/04 09:05:41;;;;;;;2.30;1.63;;;6.90;99.90;;;;;;4983991;28;20212;-67
2023/01/04 09:08:07;;;;;;;1.03;1.03;;;7.00;99.90;;;;;;4979682;28;20422;-70
2023/01/04 09:10:32;;;;;;;1.15;1.15;;;7.00;99.90;;;;;;4997131;28;20201;-65
2023/01/04 09:12:58;;;;;;;1.17;1.10;;;7.00;99.90;;;;;;4980141;28;20192;-68
2023/01/04 09:15:24;;;;;;;0.80;0.80;;;7.00;99.90;;;;;;4978485;28;20205;-67
2023/01/04 09:17:49;;;;;;;1.07;0.90;;;7.10;99.90;;;;;;4978181;28;20932;-68
2023/01/04 09:20:15;;;;;;;1.53;0.90;;;7.10;99.90;;;;;;4978768;28;20189;-67
2023/01/04 09:22:40;;;;;;;3.30;2.80;;;7.20;99.90;;;;;;4979771;28;20180;-68
2023/01/04 09:25:06;;;;;;;1.90;1.27;;;7.20;99.90;;;;;;4977594;28;20209;-67
2023/01/04 09:27:32;;;;;;;0.60;0.60;;;7.30;99.90;;;;;;4977251;28;20254;-68
2023/01/04 09:29:58;;;;;;;0.93;0.90;;;7.30;99.90;;;;;;4976537;28;20453;-73
2023/01/04 09:32:23;;;;;;;0.83;0.83;;;7.40;99.90;;;;;;4976964;28;20203;-69
2023/01/04 09:34:49;;;;;;;2.60;1.10;;;7.50;99.90;;;;;;4976897;28;20206;-69
2023/01/04 09:37:15;;;;;;;0.80;0.80;;;7.60;99.90;;;;;;4988658;28;20636;-68
2023/01/04 09:39:40;;;;;;;0.60;0.60;;;7.70;99.90;;;;;;4986710;28;20285;-68
2023/01/04 09:42:29;;;;;;;0.97;0.97;;;7.80;99.90;;;;;;4977293;28;20694;-67
2023/01/04 09:45:01;;;;;;;1.00;1.00;;;7.90;99.90;;;;;;4974917;28;20238;-69
2023/01/04 09:47:45;;;;;;;0.77;0.77;;;8.00;99.90;;;;;;4976749;28;20256;-69
2023/01/04 09:50:17;;;;;;;1.00;0.95;;;8.20;99.90;;;;;;4976958;28;20198;-69
2023/01/04 09:52:52;;;;;;;0.70;0.70;;;8.20;99.90;;;;;;4976479;28;20211;-71
2023/01/04 09:55:26;;;;;;;0.85;0.85;;;8.30;99.90;;;;;;4977077;28;20186;-66
2023/01/04 09:57:58;;;;;;;0.93;0.90;;;8.30;99.90;;;;;;4976952;28;20175;-70
2023/01/04 10:00:31;;;;;;;0.65;0.65;;;8.30;99.90;;;;;;4992824;28;20182;-68
2023/01/04 10:03:28;;;;;;;0.93;0.80;;;8.40;99.90;;;;;;4980309;28;20175;-68
2023/01/04 10:05:55;;;;;;;2.00;1.90;;;8.40;99.90;;;;;;4967860;28;20235;-67
2023/01/04 10:08:21;;;;;;;1.92;1.40;;;8.50;99.90;;;;;;4977292;28;20191;-67
2023/01/04 10:11:01;;;;;;;0.70;0.70;;;8.60;99.90;;;;;;4977262;28;20234;-68
2023/01/04 10:13:41;;;;;;;1.17;0.95;;;8.70;99.90;;;;;;4980363;28;20175;-67
2023/01/04 10:16:40;;;;;;;0.73;0.73;;;8.70;99.90;;;;;;4998018;28;20183;-66
2023/01/04 10:19:50;;;;;;;0.88;0.60;;;8.80;99.90;;;;;;4987420;28;20649;-67
2023/01/04 10:22:40;;;;;;;0.95;0.63;;;8.80;99.90;;;;;;4979458;28;20195;-68
2023/01/04 10:25:40;;;;;;;0.57;0.57;;;8.80;99.90;;;;;;4982829;28;20238;-67
2023/01/04 10:28:27;;;;;;;0.73;0.60;;;8.90;99.90;;;;;;4974735;28;20176;-71
2023/01/04 10:31:29;;;;;;;1.08;0.90;;;9.00;99.90;;;;;;4979010;28;20278;-76
2023/01/04 10:34:09;;;;;;;0.60;0.60;;;9.10;99.90;;;;;;4925478;29;20212;-74
2023/01/04 10:36:35;;;;;;;3.95;0.73;;;9.20;99.90;;;;;;4982964;28;20183;-76
2023/01/04 10:39:11;;;;;;;0.87;0.87;;;9.20;99.90;;;;;;4986522;28;20184;-75
2023/01/04 10:41:44;;;;;;;1.23;0.65;;;9.30;99.90;;;;;;4976609;28;20423;-73
2023/01/04 10:44:19;;;;;;;0.60;0.60;;;9.30;99.90;;;;;;4975555;28;20192;-73
2023/01/04 10:46:55;;;;;;;0.93;0.93;;;9.40;99.90;;;;;;4963150;28;20235;-68
2023/01/04 10:49:34;;;;;;;0.60;0.60;;;9.40;99.90;;;;;;4975944;28;20187;-71
2023/01/04 10:52:06;;;;;;;0.60;0.60;;;9.50;99.90;;;;;;4983294;28;20183;-68
2023/01/04 10:54:50;;;;;;;1.08;0.80;;;9.50;99.90;;;;;;4995117;28;20188;-70
2023/01/04 10:57:49;;;;;;;1.02;0.77;;;9.60;99.90;;;;;;4995368;28;20163;-71
2023/01/04 11:00:26;;;;;;;0.70;0.70;;;9.70;99.90;;;;;;4991386;28;20254;-68
2023/01/04 11:03:16;;;;;;;0.40;0.40;;;9.80;99.90;;;;;;4980808;28;20553;-73
2023/01/04 11:05:44;;;;;;;0.63;0.63;;;9.90;99.90;;;;;;4983614;28;20223;-72
2023/01/04 11:08:33;;;;;;;0.40;0.40;;;10.00;99.90;;;;;;4980787;28;20186;-69
2023/01/04 11:11:29;;;;;;;0.98;0.60;;;10.10;99.90;;;;;;4972277;28;20720;-71
2023/01/04 11:13:54;;;;;;;0.75;0.75;;;10.20;99.90;;;;;;4976126;28;20204;-70
2023/01/04 11:16:20;;;;;;;0.70;0.70;;;10.30;99.90;;;;;;4973341;28;20526;-73
2023/01/04 11:18:48;;;;;;;0.80;0.73;;;10.30;99.90;;;;;;4973263;28;20408;-68
2023/01/04 11:21:19;;;;;;;1.35;0.93;;;10.40;99.90;;;;;;4989719;28;20423;-75
2023/01/04 11:23:44;;;;;;;1.10;0.60;;;10.50;99.90;;;;;;4983219;28;20208;-69
2023/01/04 11:26:18;;;;;;;0.80;0.60;;;10.50;99.90;;;;;;4973126;28;20178;-74
2023/01/04 11:29:14;;;;;;;0.68;0.68;;;10.50;99.90;;;;;;4974619;28;20175;-71
2023/01/04 11:31:50;;;;;;;0.50;0.50;;;10.50;99.90;;;;;;4974134;28;20199;-71
2023/01/04 11:34:16;;;;;;;0.47;0.47;;;10.50;99.90;;;;;;4977546;28;20198;-73
2023/01/04 11:36:44;;;;;;;2.63;0.83;;;10.50;99.90;;;;;;4980000;28;20192;-73
2023/01/04 11:39:22;;;;;;;3.65;2.22;;;10.60;99.90;;;;;;4974955;28;20168;-74
2023/01/04 11:42:03;;;;;;;0.93;0.93;;;10.60;99.90;;;;;;4974857;28;20203;-69
2023/01/04 11:44:33;;;;;;;0.60;0.60;;;10.60;99.90;;;;;;4973902;28;20697;-74
2023/01/04 11:47:28;;;;;;;0.55;0.55;;;10.60;99.90;;;;;;4974300;28;20266;-71
2023/01/04 11:49:55;;;;;;;0.43;0.43;;;10.60;99.90;;;;;;4958815;28;20204;-72
2023/01/04 11:52:27;;;;;;;0.60;0.60;;;10.70;99.90;;;;;;4974167;28;20267;-74
2023/01/04 11:54:53;;;;;;;1.65;1.55;;;10.60;99.90;;;;;;4984925;28;20199;-71
2023/01/04 11:57:20;;;;;;;3.03;1.10;;;10.60;99.90;;;;;;4991026;28;20251;-72
2023/01/04 12:00:13;;;;;;;0.95;0.88;;;10.60;99.90;;;;;;4973433;28;20187;-69
2023/01/04 12:02:38;;;;;;;0.43;0.43;;;10.50;99.90;;;;;;4973613;28;20180;-72
2023/01/04 12:05:18;;;;;;;0.70;0.70;;;10.50;99.90;;;;;;4985440;28;20223;-70
2023/01/04 12:07:44;;;;;;;0.80;0.80;;;10.50;99.90;;;;;;4992703;28;20261;-70
2023/01/04 12:10:25;;;;;;;0.60;0.60;;;10.50;99.90;;;;;;4992957;28;20286;-70
2023/01/04 12:12:52;;;;;;;1.40;0.90;;;10.50;99.90;;;;;;4987173;28;20180;-71
2023/01/04 12:15:32;;;;;;;1.40;1.05;;;10.50;99.90;;;;;;4974344;28;20246;-70
2023/01/04 12:18:16;;;;;;;0.80;0.60;;;10.50;99.90;;;;;;4984595;28;20176;-73
2023/01/04 12:20:41;;;;;;;1.23;1.10;;;10.50;99.90;;;;;;4955670;28;20195;-69
2023/01/04 12:23:10;;;;;;;1.00;1.00;;;10.50;99.90;;;;;;4970163;28;20179;-69
2023/01/04 12:25:50;;;;;;;0.40;0.40;;;10.60;99.90;;;;;;4974154;28;20204;-67
2023/01/04 12:28:41;;;;;;;0.98;0.60;;;10.60;99.90;;;;;;4974563;28;20259;-69
2023/01/04 12:31:19;;;;;;;0.70;0.70;;;10.60;99.90;;;;;;4974787;28;20207;-71
2023/01/04 12:33:58;;;;;;;0.88;0.80;;;10.70;99.90;;;;;;4973282;28;20650;-68
2023/01/04 12:36:38;;;;;;;0.70;0.70;;;10.70;99.90;;;;;;4968834;28;20179;-69
2023/01/04 12:39:28;;;;;;;0.70;0.70;;;10.70;99.90;;;;;;4972985;28;20254;-68
2023/01/04 12:41:59;;;;;;;0.65;0.65;;;10.70;99.90;;;;;;4973895;28;20183;-68
2023/01/04 12:44:51;;;;;;;0.40;0.38;;;10.80;99.90;;;;;;4973464;28;20678;-67
2023/01/04 12:50:09;;;;;;;0.50;0.50;;;10.90;99.90;;;;;;4972300;28;20658;-68
2023/01/04 12:52:49;;;;;;;1.10;0.82;;;10.90;99.90;;;;;;4983073;28;20168;-69
2023/01/04 12:55:30;;;;;;;0.70;0.70;;;11.00;99.90;;;;;;4973999;28;20195;-66
2023/01/04 12:57:57;;;;;;;0.47;0.47;;;11.00;99.90;;;;;;4978099;28;20641;-68
2023/01/04 13:00:43;;;;;;;0.90;0.90;;;11.00;99.90;;;;;;4977799;28;20676;-68
2023/01/04 13:03:15;;;;;;;0.60;0.50;;;11.00;99.90;;;;;;4977593;28;20523;-69
2023/01/04 13:05:53;;;;;;;1.63;0.80;;;11.10;99.90;;;;;;4977769;28;20207;-68
2023/01/04 13:08:19;;;;;;;0.77;0.77;;;11.10;99.90;;;;;;4986029;28;20207;-68
2023/01/04 13:10:51;;;;;;;0.60;0.47;;;11.10;99.90;;;;;;4996934;28;20686;-69
2023/01/04 13:13:51;;;;;;;0.50;0.50;;;11.10;99.90;;;;;;4977182;28;20533;-70
2023/01/04 13:16:22;;;;;;;0.50;0.50;;;11.10;99.90;;;;;;4977916;28;20427;-72
2023/01/04 13:18:55;;;;;;;0.90;0.85;;;11.10;99.90;;;;;;4977573;28;20652;-69
2023/01/04 13:21:31;;;;;;;1.02;1.02;;;11.00;99.90;;;;;;4976494;28;20247;-70
2023/01/04 13:24:32;;;;;;;0.52;0.52;;;11.10;99.90;;;;;;4993047;28;20206;-66
2023/01/04 13:27:13;;;;;;;0.50;0.50;;;11.10;99.90;;;;;;4984772;28;20189;-68
2023/01/04 13:29:40;;;;;;;1.88;0.73;;;11.10;99.90;;;;;;4977466;28;20441;-71
2023/01/04 13:32:23;;;;;;;0.73;0.60;;;11.10;99.90;;;;;;4977662;28;20207;-66
2023/01/04 13:35:12;;;;;;;0.50;0.50;;;11.10;99.90;;;;;;4977134;28;20184;-70
2023/01/04 13:37:43;;;;;;;0.77;0.77;;;11.20;99.90;;;;;;4977548;28;20222;-71
2023/01/04 13:40:31;;;;;;;0.53;0.53;;;11.30;99.90;;;;;;4983089;28;20174;-67
2023/01/04 13:43:16;;;;;;;1.27;0.60;;;11.30;99.90;;;;;;4998129;28;20411;-71
2023/01/04 13:45:57;;;;;;;1.47;0.63;;;11.30;99.90;;;;;;4994503;28;20249;-69
2023/01/04 13:48:25;;;;;;;1.02;1.02;;;11.30;99.90;;;;;;4978820;28;20432;-69
2023/01/04 13:51:22;;;;;;;1.13;1.10;;;11.30;99.90;;;;;;4991358;28;20201;-69
2023/01/04 13:54:00;;;;;;;1.13;0.88;;;11.30;99.90;;;;;;4991747;28;20434;-68
2023/01/04 13:56:28;;;;;;;0.70;0.70;;;11.30;99.90;;;;;;4993497;28;20176;-70
2023/01/04 13:58:54;;;;;;;0.67;0.67;;;11.40;99.90;;;;;;4993702;28;20418;-69
2023/01/04 14:01:36;;;;;;;0.50;0.30;;;11.40;99.90;;;;;;4975565;28;21004;-67
2023/01/04 14:04:12;;;;;;;1.25;0.65;;;11.40;99.90;;;;;;4975377;28;20522;-70
2023/01/04 14:06:47;;;;;;;0.90;0.50;;;11.40;99.90;;;;;;4978035;28;20610;-69
2023/01/04 14:09:24;;;;;;;0.50;0.50;;;11.40;99.90;;;;;;4975472;28;20191;-74
2023/01/04 14:12:00;;;;;;;1.52;0.60;;;11.40;99.90;;;;;;5008079;28;20474;-70
2023/01/04 14:14:43;;;;;;;0.70;0.70;;;11.50;99.90;;;;;;4976706;28;20189;-69
2023/01/04 14:17:09;;;;;;;0.68;0.68;;;11.50;99.90;;;;;;4975865;28;20183;-69
2023/01/04 14:20:10;;;;;;;0.60;0.60;;;11.50;99.90;;;;;;4980751;28;20690;-70
2023/01/04 14:22:35;;;;;;;0.40;0.40;;;11.50;99.90;;;;;;4964388;28;20192;-69
2023/01/04 14:25:47;;;;;;;0.80;0.80;;;11.50;99.90;;;;;;4975339;28;20461;-70
2023/01/04 14:28:28;;;;;;;1.80;0.50;;;11.50;99.90;;;;;;4976696;28;20176;-68
2023/01/04 14:31:15;;;;;;;2.35;0.95;;;11.50;99.90;;;;;;4989201;28;20294;-70
2023/01/04 14:33:47;;;;;;;4.28;0.70;;;11.50;99.90;;;;;;4993607;28;20180;-67
2023/01/04 14:36:25;;;;;;;0.50;0.50;;;11.50;99.90;;;;;;4995893;28;20175;-72
2023/01/04 14:39:06;;;;;;;0.77;0.60;;;11.50;99.90;;;;;;4991339;28;20183;-68
2023/01/04 14:41:34;;;;;;;1.13;0.40;;;11.50;99.90;;;;;;4989587;28;20183;-68
2023/01/04 14:44:00;;;;;;;0.45;0.45;;;11.40;99.90;;;;;;4984014;28;20204;-69
2023/01/04 14:46:30;;;;;;;0.60;0.60;;;11.40;99.90;;;;;;4980256;28;20181;-71
2023/01/04 14:49:03;;;;;;;0.40;0.30;;;11.50;99.90;;;;;;4972396;28;20181;-71
2023/01/04 14:51:37;;;;;;;0.60;0.40;;;11.50;99.90;;;;;;4976366;28;20207;-70
2023/01/04 14:54:05;;;;;;;0.93;0.70;;;11.40;99.90;;;;;;4975965;28;20263;-70
2023/01/04 14:56:30;;;;;;;0.57;0.57;;;11.40;99.90;;;;;;4976757;28;20405;-68
2023/01/04 14:58:56;;;;;;;0.50;0.50;;;11.40;99.90;;;;;;4976478;28;20426;-69
2023/01/04 15:01:22;;;;;;;0.70;0.57;;;11.40;99.90;;;;;;4989209;28;20195;-69
2023/01/04 15:03:47;;;;;;;3.20;1.47;;;11.40;99.90;;;;;;4994422;28;20257;-70
2023/01/04 15:06:13;;;;;;;1.07;0.90;;;11.40;99.90;;;;;;4991008;28;20277;-71
2023/01/04 15:08:39;;;;;;;0.50;0.50;;;11.40;99.90;;;;;;4985928;28;20201;-71
2023/01/04 15:11:04;;;;;;;0.60;0.60;;;11.40;99.90;;;;;;5007045;28;20209;-69
2023/01/04 15:13:30;;;;;;;0.50;0.50;;;11.40;99.90;;;;;;4984707;28;20216;-70
2023/01/04 15:15:56;;;;;;;0.53;0.53;;;11.40;99.90;;;;;;4995116;28;20419;-72
2023/01/04 15:18:22;;;;;;;0.40;0.40;;;11.30;99.90;;;;;;4994651;28;20172;-68
2023/01/04 15:20:47;;;;;;;0.40;0.40;;;11.40;99.90;;;;;;4974934;28;20239;-70
2023/01/04 15:23:13;;;;;;;0.40;0.40;;;11.30;99.90;;;;;;5002534;28;20181;-69
2023/01/04 15:25:40;;;;;;;0.60;0.60;;;11.30;99.90;;;;;;4956162;28;20275;-72
2023/01/04 15:28:06;;;;;;;0.57;0.57;;;11.30;99.90;;;;;;4956365;28;20452;-68
2023/01/04 15:30:32;;;;;;;0.57;0.57;;;11.30;99.90;;;;;;4965158;28;20203;-71
2023/01/04 15:32:58;;;;;;;0.50;0.50;;;11.30;99.90;;;;;;4981255;28;20343;-71
2023/01/04 15:35:23;;;;;;;0.40;0.40;;;11.30;99.90;;;;;;4994939;28;20190;-70
2023/01/04 15:37:50;;;;;;;0.40;0.40;;;11.30;99.90;;;;;;4991332;28;20910;-69
2023/01/04 15:40:17;;;;;;;0.55;0.55;;;11.20;99.90;;;;;;4994670;28;20170;-67
2023/01/04 15:42:58;;;;;;;0.60;0.60;;;11.20;99.90;;;;;;4976479;28;20638;-70
2023/01/04 15:45:27;;;;;;;0.73;0.60;;;11.20;99.90;;;;;;4975092;28;20204;-68
2023/01/04 15:47:55;;;;;;;5.10;1.20;;;11.10;99.90;;;;;;4981468;28;20185;-70
2023/01/04 15:50:21;;;;;;;0.70;0.70;;;11.10;99.90;;;;;;4984721;28;20203;-68
2023/01/04 15:52:46;;;;;;;0.87;0.80;;;11.10;99.90;;;;;;4988723;28;20177;-71
2023/01/04 15:55:13;;;;;;;0.83;0.60;;;11.10;99.90;;;;;;4974085;28;20243;-69
2023/01/04 15:57:39;;;;;;;1.05;0.88;;;11.10;99.90;;;;;;4987614;28;20215;-70
2023/01/04 16:00:05;;;;;;;0.70;0.70;;;11.20;99.90;;;;;;4978353;28;20673;-69
2023/01/04 16:02:31;;;;;;;1.55;1.05;;;11.20;99.90;;;;;;4994812;28;20463;-71
2023/01/04 16:04:57;;;;;;;2.20;1.33;;;11.20;99.90;;;;;;4994000;28;20209;-67
2023/01/04 16:07:23;;;;;;;1.33;1.23;;;11.20;99.90;;;;;;4983666;28;20426;-67
2023/01/04 16:09:49;;;;;;;1.20;1.10;;;11.20;99.90;;;;;;4993464;28;20191;-71
2023/01/04 16:14:59;;;;;;;1.17;0.60;;;11.10;99.90;;;;;;4977988;28;20235;-69
2023/01/04 16:17:24;;;;;;;0.50;0.50;;;11.10;99.90;;;;;;4982263;28;20169;-68
2023/01/04 16:19:50;;;;;;;0.50;0.50;;;11.10;99.90;;;;;;4982888;28;20671;-67
2023/01/04 16:22:15;;;;;;;0.90;0.77;;;11.10;99.90;;;;;;4988263;28;20634;-68
2023/01/04 16:24:41;;;;;;;0.80;0.80;;;11.20;99.90;;;;;;5001821;28;20210;-69
2023/01/04 16:27:08;;;;;;;0.60;0.60;;;11.20;99.90;;;;;;5001563;28;20255;-69
2023/01/04 16:29:34;;;;;;;0.90;0.90;;;11.20;99.90;;;;;;4993145;28;20647;-69
2023/01/04 16:31:59;;;;;;;3.80;0.50;;;11.20;99.90;;;;;;4973912;28;20262;-70
2023/01/04 16:34:25;;;;;;;2.50;1.03;;;11.20;99.90;;;;;;4974132;28;20227;-69
2023/01/04 16:36:50;;;;;;;0.83;0.83;;;11.20;99.90;;;;;;4975013;28;20180;-68
2023/01/04 16:39:16;;;;;;;0.70;0.70;;;11.20;99.90;;;;;;4991736;28;20187;-68
2023/01/04 16:41:42;;;;;;;0.90;0.70;;;11.20;99.90;;;;;;4999609;28;20281;-70
2023/01/04 16:44:09;;;;;;;0.50;0.47;;;11.20;99.90;;;;;;4998731;28;20195;-69
2023/01/04 16:46:36;;;;;;;0.50;0.50;;;11.30;99.90;;;;;;4999009;28;20175;-70
2023/01/04 16:49:08;;;;;;;3.53;0.82;;;11.30;99.90;;;;;;4986036;28;20200;-72
2023/01/04 16:51:35;;;;;;;0.60;0.50;;;11.30;99.90;;;;;;4989154;28;20199;-71
2023/01/04 16:54:02;;;;;;;0.80;0.80;;;11.30;99.90;;;;;;5006252;28;20202;-72
2023/01/04 16:56:28;;;;;;;1.35;0.90;;;11.30;99.90;;;;;;4974993;28;20480;-71
2023/01/04 16:58:54;;;;;;;0.70;0.70;;;11.40;99.90;;;;;;4972954;28;20173;-71
2023/01/04 17:01:26;;;;;;;0.80;0.80;;;11.40;99.90;;;;;;4973743;28;20176;-69
2023/01/04 17:03:58;;;;;;;1.08;0.90;;;11.40;99.90;;;;;;4973282;28;20235;-71
2023/01/04 17:06:26;;;;;;;0.40;0.40;;;11.50;99.90;;;;;;4974608;28;20624;-70
2023/01/04 17:08:52;;;;;;;0.60;0.60;;;11.50;99.90;;;;;;4965235;28;20437;-72
2023/01/04 17:11:29;;;;;;;0.40;0.40;;;11.50;99.90;;;;;;4988287;28;20597;-71
2023/01/04 17:13:56;;;;;;;0.90;0.80;;;11.50;99.90;;;;;;4971645;28;20467;-70
2023/01/04 17:16:22;;;;;;;3.28;1.60;;;11.50;99.90;;;;;;4974155;28;20453;-70
2023/01/04 17:18:49;;;;;;;0.67;0.67;;;11.50;99.90;;;;;;4985353;28;20182;-70
2023/01/04 17:21:18;;;;;;;0.60;0.60;;;11.50;99.90;;;;;;4974895;28;20428;-69
2023/01/04 17:23:46;;;;;;;0.82;0.82;;;11.50;99.90;;;;;;4972369;28;20445;-70
2023/01/04 17:26:16;;;;;;;0.60;0.60;;;11.50;99.90;;;;;;4968853;28;20205;-69
2023/01/04 17:28:42;;;;;;;1.40;0.80;;;11.50;99.90;;;;;;4975109;28;20794;-71
2023/01/04 17:31:15;;;;;;;0.60;0.60;;;11.50;99.90;;;;;;4973527;28;20974;-70
2023/01/04 17:33:40;;;;;;;0.68;0.60;;;11.50;99.90;;;;;;4972571;28;20191;-69
2023/01/04 17:36:09;;;;;;;0.87;0.50;;;11.60;99.90;;;;;;4972359;28;20506;-69
2023/01/04 17:38:35;;;;;;;0.70;0.70;;;11.60;99.90;;;;;;4973346;28;20172;-69
2023/01/04 17:41:22;;;;;;;0.60;0.60;;;11.60;99.90;;;;;;4973405;28;20275;-71
2023/01/04 17:43:51;;;;;;;0.60;0.60;;;11.60;99.90;;;;;;4974711;28;20450;-69
2023/01/04 17:46:19;;;;;;;0.80;0.70;;;11.60;99.90;;;;;;4973751;28;20446;-72
2023/01/04 17:48:46;;;;;;;1.00;1.00;;;11.60;99.90;;;;;;4974379;28;20219;-70
2023/01/04 17:51:19;;;;;;;1.17;0.70;;;11.70;99.90;;;;;;4980885;28;20258;-63
2023/01/04 17:53:44;;;;;;;0.70;0.70;;;11.60;99.90;;;;;;4974528;28;20983;-66
2023/01/04 17:56:15;;;;;;;0.60;0.60;;;11.60;99.90;;;;;;4976522;28;20173;-68
2023/01/04 17:58:42;;;;;;;0.50;0.50;;;11.70;99.90;;;;;;4978261;28;20431;-69
2023/01/04 18:01:09;;;;;;;0.73;0.50;;;11.60;99.90;;;;;;4974610;28;20500;-71
2023/01/04 18:03:35;;;;;;;0.70;0.70;;;11.60;99.90;;;;;;4975502;28;20432;-70
2023/01/04 18:06:00;;;;;;;0.53;0.53;;;11.60;99.90;;;;;;4975754;28;20460;-72
2023/01/04 18:08:26;;;;;;;4.10;2.40;;;11.60;99.90;;;;;;4981452;28;20471;-70
2023/01/04 18:10:51;;;;;;;0.43;0.40;;;11.60;99.90;;;;;;4974923;28;20203;-67
2023/01/04 18:13:17;;;;;;;0.73;0.50;;;11.70;99.90;;;;;;4975738;28;20235;-70
2023/01/04 18:15:43;;;;;;;1.27;0.70;;;11.60;99.90;;;;;;4981643;28;20673;-66
2023/01/04 18:18:08;;;;;;;0.70;0.67;;;11.60;99.90;;;;;;4976164;28;20251;-69
2023/01/04 18:20:34;;;;;;;0.40;0.40;;;11.60;99.90;;;;;;4981422;28;20539;-69
2023/01/04 18:22:59;;;;;;;0.90;0.90;;;11.60;99.90;;;;;;4975712;28;20188;-67